createdAt,value
2017-07-23T00:00:13.407Z,1001.43
2017-07-23T00:00:53.888Z,1001.47
2017-07-23T00:01:34.433Z,1001.43
2017-07-23T00:02:14.898Z,1001.49
2017-07-23T00:02:55.482Z,1001.45
2017-07-23T00:03:35.962Z,1001.5
2017-07-23T00:04:16.560Z,1001.46
2017-07-23T00:04:57.058Z,1001.53
2017-07-23T00:05:37.583Z,1001.54
2017-07-23T00:06:18.182Z,1001.53
2017-07-23T00:06:58.898Z,1001.52
2017-07-23T00:07:39.406Z,1001.51
2017-07-23T00:08:20.050Z,1001.55
2017-07-23T00:09:00.700Z,1001.49
2017-07-23T00:09:41.237Z,1001.53
2017-07-23T00:10:21.749Z,1001.6
2017-07-23T00:11:02.259Z,1001.57
2017-07-23T00:11:42.803Z,1001.62
2017-07-23T00:12:23.308Z,1001.6
2017-07-23T00:13:03.869Z,1001.65
2017-07-23T00:13:44.635Z,1001.66
2017-07-23T00:14:25.291Z,1001.63
2017-07-23T00:15:06.560Z,1001.65
2017-07-23T00:15:47.142Z,1001.64
2017-07-23T00:16:27.686Z,1001.62
2017-07-23T00:17:08.160Z,1001.65
2017-07-23T00:17:48.630Z,1001.63
2017-07-23T00:18:29.250Z,1001.65
2017-07-23T00:19:09.961Z,1001.69
2017-07-23T00:19:50.368Z,1001.65
2017-07-23T00:20:30.883Z,1001.65
2017-07-23T00:21:11.454Z,1001.67
2017-07-23T00:21:51.964Z,1001.62
2017-07-23T00:22:32.480Z,1001.64
2017-07-23T00:23:12.981Z,1001.61
2017-07-23T00:23:53.509Z,1001.63
2017-07-23T00:24:33.989Z,1001.61
2017-07-23T00:25:14.470Z,1001.62
2017-07-23T00:25:55.216Z,1001.65
2017-07-23T00:26:35.725Z,1001.61
2017-07-23T00:27:16.216Z,1001.65
2017-07-23T00:27:56.769Z,1001.64
2017-07-23T00:28:37.261Z,1001.65
2017-07-23T00:29:17.815Z,1001.6
2017-07-23T00:29:58.328Z,1001.64
2017-07-23T00:30:38.820Z,1001.66
2017-07-23T00:31:19.389Z,1001.66
2017-07-23T00:31:59.864Z,1001.63
2017-07-23T00:32:40.424Z,1001.71
2017-07-23T00:33:20.919Z,1001.65
2017-07-23T00:34:01.445Z,1001.67
2017-07-23T00:34:42.041Z,1001.63
2017-07-23T00:35:22.468Z,1001.67
2017-07-23T00:36:02.945Z,1001.71
2017-07-23T00:36:43.470Z,1001.69
2017-07-23T00:37:23.945Z,1001.67
2017-07-23T00:38:04.484Z,1001.66
2017-07-23T00:38:44.976Z,1001.72
2017-07-23T00:39:25.611Z,1001.69
2017-07-23T00:40:06.117Z,1001.68
2017-07-23T00:40:46.603Z,1001.7
2017-07-23T00:41:27.158Z,1001.72
2017-07-23T00:42:07.667Z,1001.72
2017-07-23T00:42:48.152Z,1001.72
2017-07-23T00:43:28.687Z,1001.7
2017-07-23T00:44:09.151Z,1001.7
2017-07-23T00:44:49.720Z,1001.69
2017-07-23T00:45:30.225Z,1001.67
2017-07-23T00:46:10.707Z,1001.75
2017-07-23T00:46:51.209Z,1001.76
2017-07-23T00:47:31.681Z,1001.74
2017-07-23T00:48:12.168Z,1001.77
2017-07-23T00:48:52.668Z,1001.76
2017-07-23T00:49:33.193Z,1001.75
2017-07-23T00:50:13.648Z,1001.82
2017-07-23T00:50:54.164Z,1001.78
2017-07-23T00:51:34.696Z,1001.79
2017-07-23T00:52:15.161Z,1001.81
2017-07-23T00:52:55.664Z,1001.81
2017-07-23T00:53:36.152Z,1001.8
2017-07-23T00:54:16.660Z,1001.85
2017-07-23T00:54:57.181Z,1001.79
2017-07-23T00:55:37.659Z,1001.79
2017-07-23T00:56:18.202Z,1001.74
2017-07-23T00:56:58.677Z,1001.73
2017-07-23T00:57:39.197Z,1001.75
2017-07-23T00:58:19.685Z,1001.72
2017-07-23T00:59:00.139Z,1001.74
2017-07-23T00:59:40.765Z,1001.69
2017-07-23T01:00:21.250Z,1001.75
2017-07-23T01:01:01.761Z,1001.79
2017-07-23T01:01:42.330Z,1001.84
2017-07-23T01:02:22.814Z,1001.84
2017-07-23T01:03:03.397Z,1001.93
2017-07-23T01:03:43.877Z,1001.91
2017-07-23T01:04:24.387Z,1001.91
2017-07-23T01:05:04.849Z,1001.86
2017-07-23T01:05:45.351Z,1001.86
2017-07-23T01:06:26.087Z,1001.86
2017-07-23T01:07:06.566Z,1001.78
2017-07-23T01:07:47.064Z,1001.79
2017-07-23T01:08:27.564Z,1001.78
2017-07-23T01:09:08.097Z,1001.79
2017-07-23T01:09:48.598Z,1001.76
2017-07-23T01:10:29.114Z,1001.76
2017-07-23T01:11:09.636Z,1001.75
2017-07-23T01:11:50.158Z,1001.83
2017-07-23T01:12:30.676Z,1001.78
2017-07-23T01:13:11.108Z,1001.8
2017-07-23T01:13:51.662Z,1001.8
2017-07-23T01:14:32.134Z,1001.77
2017-07-23T01:15:12.671Z,1001.74
2017-07-23T01:15:53.193Z,1001.73
2017-07-23T01:16:33.709Z,1001.7
2017-07-23T01:17:14.232Z,1001.72
2017-07-23T01:17:54.683Z,1001.76
2017-07-23T01:18:35.223Z,1001.72
2017-07-23T01:19:15.697Z,1001.75
2017-07-23T01:19:56.211Z,1001.72
2017-07-23T01:20:36.665Z,1001.76
2017-07-23T01:21:17.167Z,1001.7
2017-07-23T01:21:57.668Z,1001.74
2017-07-23T01:22:38.155Z,1001.75
2017-07-23T01:23:18.654Z,1001.75
2017-07-23T01:23:59.158Z,1001.74
2017-07-23T01:24:39.657Z,1001.73
2017-07-23T01:25:20.144Z,1001.78
2017-07-23T01:26:00.663Z,1001.81
2017-07-23T01:26:41.176Z,1001.79
2017-07-23T01:27:21.717Z,1001.79
2017-07-23T01:28:02.298Z,1001.81
2017-07-23T01:28:42.811Z,1001.77
2017-07-23T01:29:23.336Z,1001.81
2017-07-23T01:30:03.828Z,1001.81
2017-07-23T01:30:44.346Z,1001.84
2017-07-23T01:31:24.804Z,1001.82
2017-07-23T01:32:05.401Z,1001.78
2017-07-23T01:32:45.857Z,1001.79
2017-07-23T01:33:26.396Z,1001.77
2017-07-23T01:34:06.846Z,1001.81
2017-07-23T01:34:47.359Z,1001.81
2017-07-23T01:35:27.920Z,1001.81
2017-07-23T01:36:08.455Z,1001.84
2017-07-23T01:36:48.904Z,1001.89
2017-07-23T01:37:29.472Z,1001.87
2017-07-23T01:38:09.929Z,1001.9
2017-07-23T01:38:50.401Z,1001.92
2017-07-23T01:39:30.945Z,1001.98
2017-07-23T01:40:11.594Z,1001.96
2017-07-23T01:40:52.106Z,1001.98
2017-07-23T01:41:32.573Z,1001.94
2017-07-23T01:42:13.079Z,1001.96
2017-07-23T01:42:53.590Z,1001.93
2017-07-23T01:43:34.082Z,1001.94
2017-07-23T01:44:14.649Z,1002.02
2017-07-23T01:44:55.100Z,1002.01
2017-07-23T01:45:35.603Z,1002
2017-07-23T01:46:16.050Z,1002.06
2017-07-23T01:46:56.571Z,1002.02
2017-07-23T01:47:37.010Z,1002.02
2017-07-23T01:48:17.523Z,1002.03
2017-07-23T01:48:58.032Z,1001.97
2017-07-23T01:49:38.500Z,1001.97
2017-07-23T01:50:19.153Z,1001.98
2017-07-23T01:50:59.615Z,1001.95
2017-07-23T01:51:40.147Z,1001.96
2017-07-23T01:52:20.590Z,1001.91
2017-07-23T01:53:01.127Z,1001.95
2017-07-23T01:53:41.575Z,1001.97
2017-07-23T01:54:22.082Z,1001.97
2017-07-23T01:55:02.589Z,1001.97
2017-07-23T01:55:43.080Z,1002.02
2017-07-23T01:56:23.595Z,1002
2017-07-23T01:57:04.042Z,1001.99
2017-07-23T01:57:44.586Z,1002
2017-07-23T01:58:25.104Z,1001.96
2017-07-23T01:59:05.574Z,1001.96
2017-07-23T01:59:46.027Z,1001.96
2017-07-23T02:00:26.542Z,1001.97
2017-07-23T02:01:07.011Z,1002.01
2017-07-23T02:01:47.511Z,1002.04
2017-07-23T02:02:28.042Z,1002.07
2017-07-23T02:03:08.523Z,1002.05
2017-07-23T02:03:49.028Z,1002.09
2017-07-23T02:04:29.479Z,1002.12
2017-07-23T02:05:09.975Z,1002.09
2017-07-23T02:05:50.502Z,1002.1
2017-07-23T02:06:30.977Z,1002.12
2017-07-23T02:07:11.478Z,1002.1
2017-07-23T02:07:52.129Z,1002.08
2017-07-23T02:08:32.700Z,1002.07
2017-07-23T02:09:13.225Z,1002.1
2017-07-23T02:09:53.698Z,1002.11
2017-07-23T02:10:34.224Z,1002.13
2017-07-23T02:11:14.734Z,1002.16
2017-07-23T02:11:55.195Z,1002.19
2017-07-23T02:12:35.710Z,1002.23
2017-07-23T02:13:16.223Z,1002.24
2017-07-23T02:13:56.910Z,1002.22
2017-07-23T02:14:37.527Z,1002.23
2017-07-23T02:15:17.937Z,1002.19
2017-07-23T02:15:58.463Z,1002.24
2017-07-23T02:16:39.004Z,1002.2
2017-07-23T02:17:19.561Z,1002.18
2017-07-23T02:18:00.008Z,1002.17
2017-07-23T02:18:40.519Z,1002.21
2017-07-23T02:19:21.052Z,1002.21
2017-07-23T02:20:01.577Z,1002.24
2017-07-23T02:20:42.070Z,1002.25
2017-07-23T02:21:22.556Z,1002.23
2017-07-23T02:22:03.036Z,1002.3
2017-07-23T02:22:43.530Z,1002.3
2017-07-23T02:23:23.989Z,1002.34
2017-07-23T02:24:04.518Z,1002.38
2017-07-23T02:26:17.781Z,1002.43
2017-07-23T02:26:58.286Z,1002.43
2017-07-23T02:27:38.783Z,1002.44
2017-07-23T02:28:19.341Z,1002.42
2017-07-23T02:28:59.850Z,1002.43
2017-07-23T02:29:40.335Z,1002.49
2017-07-23T02:30:20.857Z,1002.57
2017-07-23T02:31:01.346Z,1002.58
2017-07-23T02:31:41.831Z,1002.56
2017-07-23T02:32:22.346Z,1002.63
2017-07-23T02:33:02.843Z,1002.57
2017-07-23T02:33:43.371Z,1002.58
2017-07-23T02:34:24.013Z,1002.51
2017-07-23T02:35:04.387Z,1002.45
2017-07-23T02:35:44.941Z,1002.45
2017-07-23T02:36:25.426Z,1002.49
2017-07-23T02:37:05.945Z,1002.56
2017-07-23T02:37:46.412Z,1002.59
2017-07-23T02:38:26.936Z,1002.64
2017-07-23T02:39:07.388Z,1002.64
2017-07-23T02:39:47.876Z,1002.66
2017-07-23T02:40:28.379Z,1002.69
2017-07-23T02:41:08.887Z,1002.68
2017-07-23T02:41:49.391Z,1002.69
2017-07-23T02:42:30.048Z,1002.63
2017-07-23T02:43:10.534Z,1002.68
2017-07-23T02:43:51.033Z,1002.65
2017-07-23T02:44:31.693Z,1002.69
2017-07-23T02:45:12.202Z,1002.66
2017-07-23T02:45:52.717Z,1002.66
2017-07-23T02:46:33.197Z,1002.63
2017-07-23T02:47:13.690Z,1002.59
2017-07-23T02:47:54.191Z,1002.52
2017-07-23T02:48:34.705Z,1002.52
2017-07-23T02:49:15.200Z,1002.53
2017-07-23T02:49:55.710Z,1002.55
2017-07-23T02:50:36.196Z,1002.53
2017-07-23T02:51:16.725Z,1002.47
2017-07-23T02:51:57.241Z,1002.44
2017-07-23T02:52:37.902Z,1002.42
2017-07-23T02:53:18.444Z,1002.41
2017-07-23T02:53:58.956Z,1002.4
2017-07-23T02:54:39.435Z,1002.4
2017-07-23T02:55:19.914Z,1002.45
2017-07-23T02:56:00.379Z,1002.45
2017-07-23T02:56:40.931Z,1002.49
2017-07-23T02:57:21.421Z,1002.5
2017-07-23T02:58:01.901Z,1002.42
2017-07-23T02:58:42.371Z,1002.39
2017-07-23T02:59:22.876Z,1002.43
2017-07-23T03:00:03.350Z,1002.44
2017-07-23T03:00:43.835Z,1002.42
2017-07-23T03:01:24.371Z,1002.43
2017-07-23T03:02:04.888Z,1002.42
2017-07-23T03:02:45.322Z,1002.43
2017-07-23T03:03:25.887Z,1002.45
2017-07-23T03:04:06.503Z,1002.43
2017-07-23T03:04:46.988Z,1002.44
2017-07-23T03:05:27.472Z,1002.5
2017-07-23T03:06:07.958Z,1002.42
2017-07-23T03:06:48.532Z,1002.46
2017-07-23T03:07:28.936Z,1002.49
2017-07-23T03:08:09.488Z,1002.52
2017-07-23T03:08:49.928Z,1002.56
2017-07-23T03:09:30.446Z,1002.51
2017-07-23T03:10:10.923Z,1002.53
2017-07-23T03:10:51.432Z,1002.5
2017-07-23T03:11:32.001Z,1002.51
2017-07-23T03:12:12.475Z,1002.49
2017-07-23T03:12:52.995Z,1002.51
2017-07-23T03:13:33.485Z,1002.52
2017-07-23T03:14:13.964Z,1002.52
2017-07-23T03:14:54.482Z,1002.52
2017-07-23T03:15:34.986Z,1002.53
2017-07-23T03:16:15.459Z,1002.53
2017-07-23T03:16:55.940Z,1002.53
2017-07-23T03:17:36.427Z,1002.52
2017-07-23T03:18:16.971Z,1002.56
2017-07-23T03:18:57.454Z,1002.57
2017-07-23T03:19:38.058Z,1002.53
2017-07-23T03:20:18.489Z,1002.55
2017-07-23T03:20:59.049Z,1002.5
2017-07-23T03:21:39.540Z,1002.52
2017-07-23T03:22:20.018Z,1002.52
2017-07-23T03:23:00.523Z,1002.54
2017-07-23T03:23:41.013Z,1002.59
2017-07-23T03:24:21.517Z,1002.6
2017-07-23T03:25:02.025Z,1002.61
2017-07-23T03:25:42.526Z,1002.62
2017-07-23T03:26:23.014Z,1002.62
2017-07-23T03:27:03.467Z,1002.58
2017-07-23T03:27:44.015Z,1002.59
2017-07-23T03:28:24.507Z,1002.49
2017-07-23T03:29:05.037Z,1002.55
2017-07-23T03:29:45.521Z,1002.53
2017-07-23T03:30:25.985Z,1002.56
2017-07-23T03:31:06.582Z,1002.54
2017-07-23T03:31:47.030Z,1002.56
2017-07-23T03:32:27.562Z,1002.63
2017-07-23T03:33:08.081Z,1002.59
2017-07-23T03:33:48.573Z,1002.56
2017-07-23T03:34:29.043Z,1002.55
2017-07-23T03:35:09.559Z,1002.59
2017-07-23T03:35:50.038Z,1002.57
2017-07-23T03:36:30.538Z,1002.61
2017-07-23T03:37:11.027Z,1002.59
2017-07-23T03:37:51.523Z,1002.61
2017-07-23T03:38:32.032Z,1002.64
2017-07-23T03:39:12.525Z,1002.64
2017-07-23T03:39:53.017Z,1002.6
2017-07-23T03:40:33.583Z,1002.63
2017-07-23T03:41:14.078Z,1002.62
2017-07-23T03:41:54.631Z,1002.59
2017-07-23T03:42:35.156Z,1002.58
2017-07-23T03:43:15.590Z,1002.58
2017-07-23T03:43:56.114Z,1002.62
2017-07-23T03:44:36.619Z,1002.65
2017-07-23T03:45:17.126Z,1002.66
2017-07-23T03:45:57.628Z,1002.64
2017-07-23T03:46:38.114Z,1002.65
2017-07-23T03:47:18.636Z,1002.69
2017-07-23T03:47:59.088Z,1002.65
2017-07-23T03:48:39.581Z,1002.67
2017-07-23T03:49:20.091Z,1002.66
2017-07-23T03:50:00.720Z,1002.62
2017-07-23T03:50:41.163Z,1002.64
2017-07-23T03:51:21.802Z,1002.66
2017-07-23T03:52:02.149Z,1002.69
2017-07-23T03:52:42.744Z,1002.73
2017-07-23T03:53:23.292Z,1002.72
2017-07-23T03:54:03.795Z,1002.74
2017-07-23T03:54:44.255Z,1002.73
2017-07-23T03:55:24.738Z,1002.72
2017-07-23T03:56:05.254Z,1002.71
2017-07-23T03:56:45.830Z,1002.73
2017-07-23T03:57:26.292Z,1002.75
2017-07-23T03:58:06.761Z,1002.7
2017-07-23T03:58:47.226Z,1002.69
2017-07-23T03:59:27.768Z,1002.73
2017-07-23T04:00:08.281Z,1002.69
2017-07-23T04:00:48.767Z,1002.74
2017-07-23T04:01:29.281Z,1002.76
2017-07-23T04:02:09.837Z,1002.73
2017-07-23T04:02:50.283Z,1002.82
2017-07-23T04:03:30.792Z,1002.8
2017-07-23T04:04:11.303Z,1002.82
2017-07-23T04:04:51.804Z,1002.86
2017-07-23T04:05:32.321Z,1002.79
2017-07-23T04:06:12.768Z,1002.81
2017-07-23T04:06:53.314Z,1002.8
2017-07-23T04:07:33.823Z,1002.8
2017-07-23T04:08:14.282Z,1002.78
2017-07-23T04:08:54.901Z,1002.82
2017-07-23T04:09:35.465Z,1002.82
2017-07-23T04:10:15.964Z,1002.78
2017-07-23T04:10:56.496Z,1002.78
2017-07-23T04:11:36.973Z,1002.78
2017-07-23T04:12:17.516Z,1002.83
2017-07-23T04:12:57.991Z,1002.78
2017-07-23T04:13:38.441Z,1002.79
2017-07-23T04:14:18.981Z,1002.78
2017-07-23T04:14:59.481Z,1002.8
2017-07-23T04:15:39.965Z,1002.78
2017-07-23T04:16:20.463Z,1002.79
2017-07-23T04:17:00.947Z,1002.77
2017-07-23T04:17:41.428Z,1002.75
2017-07-23T04:18:21.968Z,1002.81
2017-07-23T04:19:02.485Z,1002.79
2017-07-23T04:19:43.014Z,1002.81
2017-07-23T04:20:23.497Z,1002.77
2017-07-23T04:21:04.009Z,1002.83
2017-07-23T04:21:44.480Z,1002.86
2017-07-23T04:22:24.998Z,1002.92
2017-07-23T04:23:05.479Z,1002.93
2017-07-23T04:23:45.957Z,1002.95
2017-07-23T04:24:26.448Z,1002.98
2017-07-23T04:25:06.934Z,1002.97
2017-07-23T04:25:47.459Z,1003.04
2017-07-23T04:26:27.935Z,1003
2017-07-23T04:27:08.418Z,1003.07
2017-07-23T04:27:48.909Z,1003.09
2017-07-23T04:28:29.403Z,1003.06
2017-07-23T04:29:09.910Z,1003.09
2017-07-23T04:29:50.387Z,1003.08
2017-07-23T04:30:30.915Z,1003.09
2017-07-23T04:31:11.544Z,1003.11
2017-07-23T04:31:52.094Z,1003.11
2017-07-23T04:32:32.581Z,1003.11
2017-07-23T04:33:13.094Z,1003.12
2017-07-23T04:33:53.565Z,1003.12
2017-07-23T04:34:34.025Z,1003.11
2017-07-23T04:35:14.525Z,1003.11
2017-07-23T04:35:55.046Z,1003.12
2017-07-23T04:36:35.536Z,1003.15
2017-07-23T04:37:16.028Z,1003.15
2017-07-23T04:37:56.566Z,1003.17
2017-07-23T04:38:36.994Z,1003.23
2017-07-23T04:39:17.487Z,1003.16
2017-07-23T04:39:57.954Z,1003.17
2017-07-23T04:40:38.497Z,1003.17
2017-07-23T04:41:18.986Z,1003.19
2017-07-23T04:41:59.484Z,1003.19
2017-07-23T04:42:39.959Z,1003.17
2017-07-23T04:43:20.499Z,1003.19
2017-07-23T04:44:00.990Z,1003.21
2017-07-23T04:44:41.475Z,1003.22
2017-07-23T04:45:21.933Z,1003.17
2017-07-23T04:46:02.461Z,1003.23
2017-07-23T04:46:42.940Z,1003.23
2017-07-23T04:47:23.601Z,1003.24
2017-07-23T04:48:04.106Z,1003.32
2017-07-23T04:48:44.564Z,1003.24
2017-07-23T04:49:25.068Z,1003.26
2017-07-23T04:50:05.641Z,1003.28
2017-07-23T04:50:46.152Z,1003.26
2017-07-23T04:51:26.634Z,1003.32
2017-07-23T04:52:07.154Z,1003.32
2017-07-23T04:52:47.688Z,1003.29
2017-07-23T04:53:28.192Z,1003.26
2017-07-23T04:54:08.676Z,1003.31
2017-07-23T04:54:49.182Z,1003.26
2017-07-23T04:55:29.663Z,1003.24
2017-07-23T04:56:10.167Z,1003.25
2017-07-23T04:56:50.643Z,1003.26
2017-07-23T04:57:31.109Z,1003.28
2017-07-23T04:58:11.592Z,1003.22
2017-07-23T04:58:52.080Z,1003.25
2017-07-23T04:59:32.592Z,1003.3
2017-07-23T05:00:13.070Z,1003.34
2017-07-23T05:00:53.591Z,1003.37
2017-07-23T05:01:34.079Z,1003.38
2017-07-23T05:02:14.589Z,1003.38
2017-07-23T05:02:55.063Z,1003.38
2017-07-23T05:03:35.564Z,1003.38
2017-07-23T05:04:16.063Z,1003.34
2017-07-23T05:04:56.573Z,1003.38
2017-07-23T05:05:37.073Z,1003.42
2017-07-23T05:06:17.642Z,1003.42
2017-07-23T05:06:58.142Z,1003.37
2017-07-23T05:07:38.660Z,1003.41
2017-07-23T05:08:19.167Z,1003.38
2017-07-23T05:08:59.649Z,1003.4
2017-07-23T05:09:40.132Z,1003.36
2017-07-23T05:10:20.629Z,1003.43
2017-07-23T05:11:01.123Z,1003.42
2017-07-23T05:11:41.617Z,1003.43
2017-07-23T05:12:22.108Z,1003.42
2017-07-23T05:13:02.649Z,1003.51
2017-07-23T05:13:43.111Z,1003.48
2017-07-23T05:14:23.605Z,1003.45
2017-07-23T05:15:04.160Z,1003.49
2017-07-23T05:15:44.604Z,1003.51
2017-07-23T05:16:25.090Z,1003.48
2017-07-23T05:17:05.530Z,1003.53
2017-07-23T05:17:46.053Z,1003.5
2017-07-23T05:18:26.545Z,1003.54
2017-07-23T05:19:06.997Z,1003.54
2017-07-23T05:19:47.527Z,1003.59
2017-07-23T05:20:27.989Z,1003.57
2017-07-23T05:21:08.487Z,1003.58
2017-07-23T05:21:48.977Z,1003.64
2017-07-23T05:22:29.434Z,1003.62
2017-07-23T05:23:09.928Z,1003.66
2017-07-23T05:23:50.450Z,1003.67
2017-07-23T05:24:30.926Z,1003.67
2017-07-23T05:25:11.410Z,1003.68
2017-07-23T05:25:51.927Z,1003.66
2017-07-23T05:26:32.392Z,1003.7
2017-07-23T05:27:12.897Z,1003.71
2017-07-23T05:27:53.421Z,1003.68
2017-07-23T05:28:33.880Z,1003.71
2017-07-23T05:29:14.393Z,1003.73
2017-07-23T05:29:54.964Z,1003.82
2017-07-23T05:30:35.420Z,1003.76
2017-07-23T05:31:15.944Z,1003.78
2017-07-23T05:31:56.408Z,1003.85
2017-07-23T05:32:36.980Z,1003.79
2017-07-23T05:33:17.441Z,1003.82
2017-07-23T05:33:57.964Z,1003.84
2017-07-23T05:34:38.440Z,1003.81
2017-07-23T05:35:18.973Z,1003.84
2017-07-23T05:35:59.489Z,1003.81
2017-07-23T05:36:39.958Z,1003.86
2017-07-23T05:37:20.496Z,1003.8
2017-07-23T05:38:00.992Z,1003.78
2017-07-23T05:38:41.482Z,1003.82
2017-07-23T05:39:21.950Z,1003.77
2017-07-23T05:40:02.440Z,1003.79
2017-07-23T05:40:43.046Z,1003.83
2017-07-23T05:41:23.498Z,1003.85
2017-07-23T05:42:03.994Z,1003.8
2017-07-23T05:42:44.542Z,1003.79
2017-07-23T05:43:25.024Z,1003.73
2017-07-23T05:44:05.565Z,1003.73
2017-07-23T05:44:46.037Z,1003.72
2017-07-23T05:45:26.557Z,1003.72
2017-07-23T05:46:07.075Z,1003.71
2017-07-23T05:46:47.530Z,1003.71
2017-07-23T05:47:28.053Z,1003.67
2017-07-23T05:48:08.550Z,1003.68
2017-07-23T05:48:49.039Z,1003.65
2017-07-23T05:49:29.534Z,1003.63
2017-07-23T05:50:10.030Z,1003.65
2017-07-23T05:50:50.527Z,1003.65
2017-07-23T05:51:31.107Z,1003.64
2017-07-23T05:52:11.733Z,1003.74
2017-07-23T05:52:52.162Z,1003.71
2017-07-23T05:53:32.677Z,1003.72
2017-07-23T05:54:13.170Z,1003.71
2017-07-23T05:54:53.717Z,1003.68
2017-07-23T05:55:34.205Z,1003.74
2017-07-23T05:56:14.717Z,1003.8
2017-07-23T05:56:55.200Z,1003.74
2017-07-23T05:57:35.711Z,1003.76
2017-07-23T05:58:16.249Z,1003.77
2017-07-23T05:58:56.725Z,1003.72
2017-07-23T05:59:37.250Z,1003.74
2017-07-23T06:00:17.760Z,1003.78
2017-07-23T06:00:58.260Z,1003.72
2017-07-23T06:01:39.342Z,1003.77
2017-07-23T06:02:19.810Z,1003.77
2017-07-23T06:03:00.299Z,1003.76
2017-07-23T06:03:40.787Z,1003.82
2017-07-23T06:04:21.323Z,1003.81
2017-07-23T06:05:01.774Z,1003.83
2017-07-23T06:05:42.259Z,1003.88
2017-07-23T06:06:22.801Z,1003.86
2017-07-23T06:07:03.297Z,1003.89
2017-07-23T06:07:43.813Z,1003.89
2017-07-23T06:08:24.307Z,1003.9
2017-07-23T06:09:04.755Z,1003.9
2017-07-23T06:09:45.265Z,1003.87
2017-07-23T06:10:25.772Z,1003.81
2017-07-23T06:11:06.240Z,1003.84
2017-07-23T06:11:46.769Z,1003.91
2017-07-23T06:12:27.283Z,1003.86
2017-07-23T06:13:07.787Z,1003.91
2017-07-23T06:13:48.296Z,1003.96
2017-07-23T06:14:28.757Z,1003.93
2017-07-23T06:15:09.233Z,1003.98
2017-07-23T06:15:49.766Z,1003.96
2017-07-23T06:16:30.270Z,1004
2017-07-23T06:17:10.707Z,1004.02
2017-07-23T06:17:51.227Z,1004.05
2017-07-23T06:18:31.705Z,1004.08
2017-07-23T06:19:12.223Z,1004.11
2017-07-23T06:19:52.737Z,1004.11
2017-07-23T06:20:33.201Z,1004.04
2017-07-23T06:21:13.788Z,1004.06
2017-07-23T06:21:54.256Z,1004.04
2017-07-23T06:22:34.778Z,1004.01
2017-07-23T06:23:15.306Z,1003.98
2017-07-23T06:23:55.780Z,1004
2017-07-23T06:24:36.505Z,1003.94
2017-07-23T06:25:16.856Z,1004
2017-07-23T06:25:57.346Z,1004.04
2017-07-23T06:26:37.866Z,1004.06
2017-07-23T06:27:18.343Z,1004.01
2017-07-23T06:27:58.826Z,1004.02
2017-07-23T06:28:39.364Z,1004.07
2017-07-23T06:29:19.854Z,1004.05
2017-07-23T06:30:00.316Z,1004.1
2017-07-23T06:30:40.863Z,1004.07
2017-07-23T06:31:21.309Z,1004.03
2017-07-23T06:32:01.836Z,1004.04
2017-07-23T06:32:42.338Z,1004.06
2017-07-23T06:33:22.790Z,1004
2017-07-23T06:34:03.324Z,1004.01
2017-07-23T06:34:43.820Z,1004.01
2017-07-23T06:35:24.285Z,1004.08
2017-07-23T06:36:04.775Z,1004.06
2017-07-23T06:36:45.292Z,1004.07
2017-07-23T06:37:25.759Z,1004.05
2017-07-23T06:38:06.288Z,1004.12
2017-07-23T06:38:46.759Z,1004.07
2017-07-23T06:39:27.334Z,1004.09
2017-07-23T06:40:07.762Z,1004.1
2017-07-23T06:40:48.275Z,1004.13
2017-07-23T06:41:28.789Z,1004.13
2017-07-23T06:42:09.323Z,1004.12
2017-07-23T06:42:49.874Z,1004.18
2017-07-23T06:43:30.360Z,1004.15
2017-07-23T06:44:10.878Z,1004.16
2017-07-23T06:44:51.368Z,1004.14
2017-07-23T06:45:31.854Z,1004.17
2017-07-23T06:46:12.368Z,1004.16
2017-07-23T06:46:52.855Z,1004.11
2017-07-23T06:47:33.391Z,1004.17
2017-07-23T06:48:13.846Z,1004.1
2017-07-23T06:48:54.358Z,1004.12
2017-07-23T06:49:35.029Z,1004.12
2017-07-23T06:50:15.515Z,1004.22
2017-07-23T06:50:56.052Z,1004.19
2017-07-23T06:51:36.800Z,1004.21
2017-07-23T06:52:17.288Z,1004.18
2017-07-23T06:52:57.828Z,1004.17
2017-07-23T06:53:38.342Z,1004.22
2017-07-23T06:54:18.839Z,1004.19
2017-07-23T06:54:59.333Z,1004.2
2017-07-23T06:55:39.802Z,1004.18
2017-07-23T06:56:20.331Z,1004.31
2017-07-23T06:57:00.818Z,1004.2
2017-07-23T06:57:41.392Z,1004.28
2017-07-23T06:58:21.869Z,1004.19
2017-07-23T06:59:02.453Z,1004.27
2017-07-23T06:59:42.922Z,1004.22
2017-07-23T07:00:23.440Z,1004.33
2017-07-23T07:01:03.966Z,1004.25
2017-07-23T07:01:44.485Z,1004.23
2017-07-23T07:02:25.146Z,1004.23
2017-07-23T07:03:05.535Z,1004.27
2017-07-23T07:03:46.127Z,1004.25
2017-07-23T07:04:26.614Z,1004.27
2017-07-23T07:05:07.118Z,1004.23
2017-07-23T07:05:47.696Z,1004.24
2017-07-23T07:06:28.199Z,1004.26
2017-07-23T07:07:08.795Z,1004.26
2017-07-23T07:07:49.274Z,1004.29
2017-07-23T07:08:29.735Z,1004.22
2017-07-23T07:09:10.219Z,1004.2
2017-07-23T07:09:50.730Z,1004.2
2017-07-23T07:10:31.220Z,1004.27
2017-07-23T07:11:11.759Z,1004.29
2017-07-23T07:11:52.249Z,1004.31
2017-07-23T07:12:32.792Z,1004.28
2017-07-23T07:13:13.286Z,1004.31
2017-07-23T07:13:53.793Z,1004.27
2017-07-23T07:14:34.414Z,1004.36
2017-07-23T07:15:14.963Z,1004.37
2017-07-23T07:15:55.506Z,1004.48
2017-07-23T07:16:36.027Z,1004.45
2017-07-23T07:17:16.533Z,1004.44
2017-07-23T07:17:57.135Z,1004.39
2017-07-23T07:18:37.642Z,1004.47
2017-07-23T07:19:18.274Z,1004.45
2017-07-23T07:19:58.800Z,1004.43
2017-07-23T07:20:39.282Z,1004.49
2017-07-23T07:21:19.840Z,1004.47
2017-07-23T07:22:00.353Z,1004.49
2017-07-23T07:22:40.823Z,1004.39
2017-07-23T07:23:21.324Z,1004.42
2017-07-23T07:24:01.848Z,1004.39
2017-07-23T07:24:42.361Z,1004.39
2017-07-23T07:25:22.895Z,1004.36
2017-07-23T07:26:03.407Z,1004.36
2017-07-23T07:26:43.857Z,1004.39
2017-07-23T07:27:24.344Z,1004.38
2017-07-23T07:28:04.873Z,1004.37
2017-07-23T07:28:45.438Z,1004.33
2017-07-23T07:29:25.956Z,1004.38
2017-07-23T07:30:06.418Z,1004.38
2017-07-23T07:30:46.936Z,1004.42
2017-07-23T07:31:27.453Z,1004.37
2017-07-23T07:32:07.972Z,1004.38
2017-07-23T07:32:48.452Z,1004.31
2017-07-23T07:33:28.943Z,1004.31
2017-07-23T07:34:09.538Z,1004.33
2017-07-23T07:34:50.079Z,1004.34
2017-07-23T07:35:30.585Z,1004.32
2017-07-23T07:36:11.146Z,1004.31
2017-07-23T07:36:52.258Z,1004.36
2017-07-23T07:37:32.771Z,1004.35
2017-07-23T07:38:13.374Z,1004.37
2017-07-23T07:38:53.815Z,1004.38
2017-07-23T07:39:34.319Z,1004.35
2017-07-23T07:40:14.766Z,1004.36
2017-07-23T07:40:55.403Z,1004.35
2017-07-23T07:41:35.844Z,1004.35
2017-07-23T07:42:16.391Z,1004.37
2017-07-23T07:42:56.868Z,1004.34
2017-07-23T07:43:37.388Z,1004.31
2017-07-23T07:44:17.884Z,1004.39
2017-07-23T07:44:58.477Z,1004.38
2017-07-23T07:45:39.012Z,1004.37
2017-07-23T07:46:19.525Z,1004.37
2017-07-23T07:47:00.033Z,1004.41
2017-07-23T07:47:40.552Z,1004.4
2017-07-23T07:48:21.046Z,1004.43
2017-07-23T07:49:01.552Z,1004.46
2017-07-23T07:49:42.097Z,1004.34
2017-07-23T07:50:22.609Z,1004.37
2017-07-23T07:51:03.102Z,1004.4
2017-07-23T07:51:43.548Z,1004.45
2017-07-23T07:52:24.055Z,1004.3
2017-07-23T07:53:04.600Z,1004.34
2017-07-23T07:53:45.158Z,1004.3
2017-07-23T07:54:25.656Z,1004.36
2017-07-23T07:55:06.226Z,1004.37
2017-07-23T07:55:47.484Z,1004.36
2017-07-23T07:56:28.035Z,1004.41
2017-07-23T07:57:08.462Z,1004.41
2017-07-23T07:57:49.155Z,1004.41
2017-07-23T07:58:29.694Z,1004.45
2017-07-23T07:59:10.229Z,1004.47
2017-07-23T07:59:50.797Z,1004.48
2017-07-23T08:00:31.456Z,1004.44
2017-07-23T08:01:11.918Z,1004.49
2017-07-23T08:01:52.497Z,1004.46
2017-07-23T08:02:32.949Z,1004.53
2017-07-23T08:03:13.503Z,1004.53
2017-07-23T08:03:53.974Z,1004.47
2017-07-23T08:04:35.321Z,1004.53
2017-07-23T08:05:16.034Z,1004.53
2017-07-23T08:05:56.502Z,1004.51
2017-07-23T08:06:37.251Z,1004.52
2017-07-23T08:07:17.864Z,1004.51
2017-07-23T08:07:58.610Z,1004.57
2017-07-23T08:08:39.109Z,1004.6
2017-07-23T08:09:19.618Z,1004.63
2017-07-23T08:10:00.082Z,1004.66
2017-07-23T08:10:40.610Z,1004.63
2017-07-23T08:11:21.125Z,1004.58
2017-07-23T08:12:01.623Z,1004.59
2017-07-23T08:12:42.317Z,1004.54
2017-07-23T08:13:22.876Z,1004.53